Weather observations for the past three days for
Albion Municipal Airport
Imperial (Metric)
Date Time (cdt) Wind (mph) Vis. (mi.) Weather Sky Cond. Temperature (ºF) Relative Humidity Wind Chill (°F) Heat Index (°F) Pressure Precipitation (in)
Air Dwpt 6 hour altimeter (in) sea level (mb) 1 hr 3 hr 6 hr
Max. Min.
31 12:35 N 8 10.00 Fair CLR 81.5 63.9 55% 83 29.99 0.0
31 12:15 NW 10 10.00 Fair CLR 79.7 63.1 57% 81 29.99 0.0
31 11:55 N 10 10.00 Fair CLR 78.8 62.6 58% 80 29.99 0.0
31 11:35 NW 14 10.00 Fair CLR 77.5 62.4 60% 79 29.98 0.0
31 11:15 NW 13 10.00 Fair CLR 76.1 61.9 62% 78 29.99 0.0
31 10:55 NW 10 10.00 Fair CLR 75.7 61.3 61% 78 29.99 0.0
31 10:35 NW 13 10.00 Fair CLR 74.5 60.6 62% 29.98 0.0
31 10:15 NW 13 10.00 Fair CLR 72.7 59.9 64% 29.99 0.0
31 09:55 NW 8 10.00 Partly Cloudy SCT120 70.3 60.8 72% 29.99 0.0
31 09:35 NW 9 10.00 Mostly Cloudy BKN110 68.9 60.6 75% 29.99 0.0
31 09:15 NW 9 10.00 Mostly Cloudy BKN110 68.4 61 77% 29.99 0.0
31 08:55 NW 10 10.00 Partly Cloudy SCT110 67.6 61.3 80% 29.98 0.0
31 08:35 NW 9 10.00 Fair CLR 67.1 61.3 82% 29.98 0.0
31 08:15 NW 5 10.00 Fair CLR 66.7 61.7 84% 29.99 0.0
31 07:55 W 6 10.00 Partly Cloudy SCT110 66.4 61.9 86% 30.01 0.0
31 07:35 SW 8 10.00 Mostly Cloudy BKN110 66.2 61.7 86% 30.01 0.0
31 07:15 NW 3 10.00 Partly Cloudy SCT120 65.7 62.2 89% 29.96 0.0
31 06:55 NW 6 10.00 Fair CLR 65.7 61.9 73.9 65.5 88% 29.95 0.0
31 06:35 NW 3 10.00 Fair CLR 66.2 61.7 86% 29.93 0.0
31 06:15 NW 7 10.00 Fair CLR 66.6 61.3 83% 29.92 0.0
31 05:55 NW 10 10.00 Fair CLR 66.9 61.5 83% 29.92 0.0
31 05:35 NW 9 10.00 Fair CLR 67.6 61.7 81% 29.91 0.0
31 05:15 NW 12 G 16 10.00 Fair CLR 68 61.9 81% 29.92 0.0
31 04:55 NW 9 10.00 Fair CLR 68.9 62.2 79% 29.91 0.0
31 04:35 NW 10 10.00 Fair CLR 71.1 63.1 76% 29.9 0.0
31 04:15 NW 8 10.00 Fair CLR 69.4 67.1 92% 29.88 0.0
31 03:55 Calm 10.00 Fair CLR 69.6 67.3 92% 29.88 0.0
31 03:35 Calm 10.00 Fair CLR 70 67.3 91% 29.87 0.0
31 03:15 Calm 10.00 Fair CLR 70.3 67.8 92% 29.87 0.0
31 02:55 NW 9 10.00 Fair CLR 72.9 69.1 88% 29.86 0.0
31 02:35 Calm 10.00 Fair CLR 71.8 68.7 90% 29.86 0.0
31 02:15 Calm 10.00 Fair CLR 71.1 68.4 91% 29.85 0.0
31 01:55 Calm 10.00 Fair CLR 73 69.3 88% 29.86 0.0
31 01:35 Calm 10.00 Fair CLR 72.5 69.1 89% 29.86 0.0
31 01:15 Calm 10.00 Fair CLR 72.9 69.6 90% 29.86 0.0
31 00:55 Calm 10.00 Fair CLR 72 69.8 86.5 71.2 93% 29.85 0.0
31 00:35 W 3 10.00 Fair CLR 75.6 70.9 85% 76 29.84 0.0
31 00:15 Calm 10.00 Fair CLR 73.2 70 90% 29.84 0.0
30 23:55 SE 3 10.00 Fair CLR 74.3 70.3 88% 29.84 0.0
30 23:35 Calm 10.00 Fair CLR 73.6 70.2 89% 29.84 0.0
30 23:15 SE 3 10.00 Fair CLR 75.7 71.4 87% 76 29.84 0.0
30 22:55 SE 3 7.00 Fair CLR 75.2 71.2 88% 75 29.84 0.0
30 22:35 Calm 10.00 Fair CLR 75.7 71.4 87% 76 29.85 0.0
30 22:15 Calm 10.00 Fair CLR 75.7 71.1 85% 76 29.85 0.0
30 21:55 Calm 10.00 Fair CLR 76.5 70.2 81% 78 29.85 0.0
30 21:35 SE 3 10.00 Fair CLR 76.1 69.1 79% 77 29.85 0.0
30 21:15 Calm 10.00 Fair CLR 78.3 69.8 75% 81 29.84 0.0
30 20:55 Calm 10.00 Fair CLR 78.1 70.3 77% 80 29.84 0.0
30 20:35 Calm 10.00 Fair CLR 78.4 70.7 77% 81 29.83 0.0
30 20:15 SE 3 10.00 Fair CLR 78.8 71.1 77% 82 29.83 0.0
30 19:55 Calm 10.00 Fair CLR 81.9 71.8 72% 87 29.83 0.0
30 19:35 S 3 10.00 Fair CLR 84.4 72.7 68% 91 29.83 0.0
30 19:15 S 3 10.00 Fair CLR 85.5 73 66% 92 29.83 0.0
30 18:55 S 3 10.00 Fair CLR 86.9 72.3 91 86.7 62% 94 29.83 0.0
30 18:35 S 3 10.00 Fair CLR 87.4 71.4 59% 94 29.83 0.0
30 18:15 S 6 10.00 Fair CLR 87.8 70 56% 93 29.82 0.0
30 17:55 S 6 10.00 Fair CLR 89.1 67.5 49% 92 29.82 0.0
30 17:35 S 7 10.00 Fair CLR 89.1 66.4 47% 92 29.81 0.0
30 17:15 SW 6 10.00 Fair CLR 90.3 65.7 44% 93 29.81 0.0
30 16:55 SW 7 10.00 Fair CLR 90.5 68 48% 94 29.81 0.0
30 16:35 SW 8 10.00 Fair CLR 90.5 65.1 43% 93 29.8 0.0
30 16:15 SW 7 10.00 Fair CLR 91 63.7 40% 92 29.8 0.0
30 15:55 SW 7 10.00 Fair CLR 90.5 66.6 45% 93 29.81 0.0
30 15:35 SW 6 10.00 Fair CLR 90.3 67.8 48% 94 29.81 0.0
30 15:15 Calm 10.00 Fair CLR 89.6 65.5 45% 92 29.8 0.0
30 14:55 W 3 10.00 Fair CLR 89.2 66.7 47% 92 29.81 0.0
30 14:35 W 5 10.00 Fair CLR 88.7 65.8 47% 91 29.81 0.0
30 14:15 W 5 10.00 Fair CLR 88.5 65.8 47% 91 29.8 0.0
30 13:55 W 7 10.00 Fair CLR 90.1 65.5 44% 92 29.8 0.0
30 13:35 W 6 10.00 Fair CLR 88.5 66.6 48% 91 29.82 0.0
30 13:15 W 6 10.00 Fair CLR 87.6 66.9 50% 91 29.83 0.0
30 12:55 W 5 10.00 Fair CLR 87.8 65.7 88.5 69.8 48% 90 29.83 0.0
30 12:35 W 7 10.00 Fair CLR 87.8 66.4 49% 90 29.83 0.0
30 12:15 W 7 10.00 Fair CLR 87.3 66.9 51% 90 29.83 0.0
30 11:55 W 5 10.00 Fair CLR 86.2 67.6 54% 89 29.83 0.0
30 11:35 W 6 10.00 Fair CLR 85.3 64.9 51% 87 29.83 0.0
30 11:15 SW 6 10.00 Fair CLR 85.1 68.5 58% 89 29.82 0.0
30 10:55 SW 5 10.00 Fair CLR 83.3 66.7 58% 86 29.82 0.0
30 10:35 SW 3 10.00 Fair CLR 83.3 67.3 59% 86 29.82 0.0
30 10:15 SW 6 10.00 Fair CLR 82 67.3 61% 85 29.82 0.0
30 09:55 S 5 10.00 Fair CLR 82 66.7 60% 84 29.81 0.0
30 09:35 SE 5 10.00 Fair CLR 79.7 66.9 65% 82 29.82 0.0
30 09:15 S 3 10.00 Fair CLR 77.5 66 68% 79 29.82 0.0
30 08:55 Calm 10.00 Fair CLR 75.6 65.8 72% 77 29.82 0.0
30 08:35 Calm 10.00 Fair CLR 74.1 65.1 74% 29.83 0.0
30 08:15 NW 3 10.00 Fair CLR 72.7 64.4 75% 29.83 0.0
30 07:55 NW 5 10.00 Fair CLR 71.8 64.4 78% 29.83 0.0
30 07:35 W 6 10.00 Fair CLR 70.7 64.2 80% 29.83 0.0
30 07:15 NW 7 10.00 Fair CLR 70 64 82% 29.82 0.0
30 06:55 N 5 10.00 Fair CLR 71.2 64 81 71.2 78% 29.81 0.0
30 06:35 W 6 10.00 Fair CLR 71.4 64.2 78% 29.79 0.0
30 06:15 Calm 10.00 Fair CLR 74.5 63.1 68% 29.78 0.0
30 05:55 NW 6 10.00 Fair CLR 73.4 64.4 74% 29.76 0.0
30 05:35 S 3 10.00 Thunderstorm in Vicinity SCT070 SCT090 72.5 65.3 78% 29.74 0.0
30 05:15 E 6 10.00 Thunderstorm Light Rain SCT050 SCT070 SCT090 72.5 65.1 78% 29.72 0.0
30 04:55 E 6 10.00 Thunderstorm Light Rain SCT100 SCT110 74.3 64.2 71% 29.77 0.0
30 04:35 S 6 10.00 Thunderstorm in Vicinity CLR 76.5 62.6 62% 78 29.8 0.0
30 04:15 SW 7 G 16 10.00 Fair CLR 77.9 62.4 59% 80 29.82 0.0
30 03:55 W 10 G 17 10.00 Fair CLR 80.8 61.7 52% 82 29.81 0.0
30 03:35 W 10 G 23 10.00 Thunderstorm CLR 78.8 64 61% 81 29.82 0.0
30 03:15 SW 15 G 24 10.00 Thunderstorm in Vicinity CLR 77.7 69.3 75% 80 29.85 0.0
30 02:55 Calm 10.00 Fair CLR 73.2 70.3 91% 29.82 0.0
30 02:35 SE 5 10.00 Fair CLR 72.7 70.2 92% 29.81 0.0
30 02:15 Calm 10.00 Fair CLR 73.2 70.2 90% 29.81 0.0
30 01:55 Calm 10.00 Fair CLR 73 70.3 91% 29.82 0.0
30 01:35 Calm 10.00 Fair CLR 73.4 70.7 91% 29.81 0.0
30 01:15 Calm 10.00 Fair CLR 74.8 71.4 89% 29.8 0.0
30 00:55 Calm 10.00 Fair CLR 75 71.6 86.9 74.3 89% 74 29.81 0.0
30 00:35 NW 6 10.00 Fair CLR 75.9 71.6 87% 76 29.82 0.0
30 00:15 Calm 10.00 Fair CLR 76.6 71.6 84% 78 29.81 0.0
29 23:55 SE 6 10.00 Fair CLR 76.8 71.2 83% 78 29.81 0.0
29 23:35 Calm 10.00 Fair CLR 75.6 70.9 85% 76 29.81 0.0
29 23:15 Calm 10.00 Fair CLR 77.2 70.7 81% 79 29.81 0.0
29 22:55 Calm 10.00 Fair CLR 79.9 70.7 74% 83 29.81 0.0
29 22:35 SE 5 10.00 Fair CLR 79.2 70.7 75% 82 29.81 0.0
29 22:15 SE 9 10.00 Fair CLR 81.1 70.9 71% 85 29.81 0.0
29 21:55 SE 3 7.00 Fair CLR 81 71.4 73% 85 29.81 0.0
29 21:35 Calm 10.00 Fair CLR 80.6 72.3 76% 85 29.81 0.0
29 21:15 Calm 10.00 Fair CLR 80.1 72.7 78% 84 29.8 0.0
29 20:55 Calm 10.00 Fair CLR 80.4 72.9 78% 85 29.8 0.0
29 20:35 S 5 10.00 Fair CLR 79.7 72.9 80% 84 29.8 0.0
29 20:15 S 3 10.00 Fair CLR 81.1 73 76% 86 29.8 0.0
29 19:55 S 3 10.00 Fair CLR 82.9 73.4 73% 89 29.79 0.0
29 19:35 S 3 10.00 Fair CLR 84 73.6 71% 91 29.79 0.0
29 19:15 S 6 10.00 Fair CLR 85.3 73.2 67% 92 29.79 0.0
29 18:35 S 7 10.00 Fair CLR 88 73.6 62% 96 29.79 0.0
29 18:15 S 10 10.00 Fair CLR 89.8 73.8 59% 99 29.79 0.0
29 17:55 S 7 10.00 Fair CLR 90 73.6 59% 99 29.79 0.0
29 17:35 S 6 10.00 Fair CLR 88.7 72.9 60% 96 29.79 0.0
29 17:15 S 5 10.00 Fair CLR 88.3 71.8 58% 95 29.79 0.0
29 16:55 S 8 10.00 Fair CLR 89.1 71.8 57% 96 29.79 0.0
29 16:35 SW 8 10.00 Fair CLR 90.1 70.9 53% 96 29.79 0.0
29 16:15 S 12 10.00 Fair CLR 90.5 70.2 51% 96 29.8 0.0
29 15:55 SW 9 10.00 Fair CLR 90.5 70.7 52% 97 29.8 0.0
29 15:35 SW 8 10.00 Fair CLR 90.1 70 52% 96 29.81 0.0
29 15:15 S 12 10.00 Fair CLR 90.7 70.3 51% 97 29.81 0.0
29 14:55 S 9 10.00 Fair CLR 90 69.6 51% 95 29.81 0.0
29 14:35 SW 13 10.00 Fair CLR 90.1 68.9 50% 95 29.82 0.0
29 14:15 S 9 10.00 Fair CLR 89.6 68.4 50% 94 29.82 0.0
29 13:55 SW 10 10.00 Fair CLR 89.1 67.3 49% 92 29.82 0.0
29 13:35 SW 9 10.00 Fair CLR 88.5 68.4 51% 92 29.82 0.0
29 13:15 SW 12 10.00 Fair CLR 87.3 66.6 50% 90 29.82 0.0
29 12:55 SW 7 10.00 Fair CLR 85.5 67.1 86.2 67.5 54% 88 29.83 0.0
29 12:35 SW 9 10.00 Fair CLR 85.1 68.7 58% 89 29.83 0.0
29 12:15 S 9 10.00 Fair CLR 82.6 65.3 56% 84 29.85 0.0
29 11:55 S 6 G 16 10.00 Fair CLR 82.6 65.7 57% 85 29.84 0.0
29 11:35 SW 9 10.00 Fair CLR 81.5 65.8 59% 84 29.85 0.0
29 11:15 SW 10 10.00 Fair CLR 80.6 65.1 59% 82 29.85 0.0
29 10:55 SW 10 G 16 10.00 Fair CLR 79 62.4 57% 80 29.86 0.0
29 10:35 SW 7 G 10 10.00 Fair CLR 79.7 63.5 58% 81 29.86 0.0
29 10:15 S 8 10.00 Fair CLR 79 62.6 57% 80 29.86 0.0
29 09:55 S 8 G 16 10.00 Fair CLR 79.5 62.4 56% 81 29.86 0.0
29 09:35 S 7 10.00 Fair CLR 76.3 62.8 63% 78 29.86 0.0
29 09:15 S 9 10.00 Fair CLR 75.6 62.4 64% 78 29.86 0.0
29 08:55 S 7 10.00 Fair CLR 74.3 62.1 66% 29.87 0.0
29 08:35 Calm 10.00 Fair CLR 72 62.2 72% 29.88 0.0
29 08:15 Calm 10.00 Fair CLR 70 61.9 76% 29.88 0.0
29 07:55 S 3 10.00 Fair CLR 68.4 61.9 80% 29.88 0.0
29 07:35 SE 6 10.00 Fair CLR 67.8 61.7 81% 29.87 0.0
29 07:15 SE 7 10.00 Fair CLR 67.5 61.3 81% 29.87 0.0
29 06:55 S 7 10.00 Fair CLR 68.4 61 72.7 68.2 77% 29.87 0.0
29 06:35 S 6 10.00 Fair CLR 68.4 61.2 78% 29.87 0.0
29 06:15 S 3 10.00 Fair CLR 68.4 61.3 78% 29.88 0.0
29 05:55 S 6 10.00 Fair CLR 68.2 61.7 80% 29.88 0.0
29 05:35 S 6 10.00 Fair CLR 68.2 62.1 81% 29.88 0.0
29 05:15 S 7 10.00 Fair CLR 68.9 62.1 79% 29.89 0.0
29 04:55 S 8 10.00 Fair CLR 69.8 62.1 77% 29.89 0.0
29 04:35 S 8 10.00 Fair CLR 70.3 62.1 75% 29.89 0.0
29 04:15 S 10 10.00 Fair CLR 69.8 62.2 77% 29.89 0.0
29 03:55 S 9 10.00 Thunderstorm in Vicinity CLR 70.2 62.4 77% 29.91 0.0
29 03:35 S 8 10.00 Fair CLR 71.1 62.2 74% 29.92 0.0
29 03:15 S 8 10.00 Fair CLR 70.3 62.6 77% 29.92 0.0
29 02:55 S 6 10.00 Fair CLR 70.7 62.6 76% 29.92 0.0
29 02:35 S 8 10.00 Fair CLR 70.5 63 77% 29.93 0.0
29 02:15 S 8 10.00 Fair CLR 70.7 63.5 78% 29.93 0.0
29 01:55 S 10 10.00 Fair CLR 71.6 63.7 76% 29.93 0.0
29 01:35 S 10 10.00 Fair CLR 71.8 64.4 78% 29.93 0.0
29 01:15 S 10 10.00 Fair CLR 72.5 64.4 76% 29.94 0.0
29 00:55 S 9 10.00 Fair CLR 72.7 64.8 82.4 72.7 76% 29.95 0.0
29 00:35 S 10 10.00 Fair CLR 73 64.9 76% 29.95 0.0
29 00:15 S 9 10.00 Fair CLR 73.8 65.3 75% 29.96 0.0
28 23:55 S 9 10.00 Fair CLR 73 66 79% 29.96 0.0
28 23:35 SE 9 10.00 Fair CLR 72.9 66.4 80% 29.96 0.0
28 23:15 SE 8 10.00 Fair CLR 73.2 66.6 80% 29.96 0.0
28 22:55 S 9 10.00 Fair CLR 73.6 66.9 80% 29.97 0.0
28 22:35 S 8 10.00 Fair CLR 73.8 67.1 80% 29.97 0.0
28 22:15 SE 8 10.00 Fair CLR 73.9 67.3 80% 29.96 0.0
28 21:55 SE 8 10.00 Fair CLR 73.9 67.5 80% 29.96 0.0
28 21:35 SE 8 10.00 Fair CLR 74.8 67.6 78% 29.96 0.0
28 21:15 SE 8 10.00 Fair CLR 75.2 68 78% 76 29.96 0.0
28 20:55 SE 7 10.00 Fair CLR 75.6 68.2 78% 77 29.96 0.0
28 20:35 SE 9 10.00 Fair CLR 76.1 68.4 77% 77 29.96 0.0
28 20:15 SE 9 10.00 Fair CLR 77.4 68.5 74% 79 29.96 0.0
28 19:55 SE 7 10.00 Fair CLR 77.9 69.4 75% 80 29.96 0.0
28 19:35 SE 12 G 16 10.00 Fair CLR 79.7 69.8 72% 83 29.96 0.0
28 19:15 S 13 10.00 Fair CLR 81.5 69.6 67% 85 29.96 0.0
28 18:55 S 13 G 17 10.00 Fair CLR 82.6 69.4 85.1 80.6 65% 86 29.97 0.0
28 18:35 S 12 10.00 Fair CLR 83.3 69.4 63% 87 29.97 0.0
28 18:15 S 14 G 22 10.00 Fair CLR 83.8 68.7 60% 87 29.98 0.0
28 17:55 S 15 G 21 10.00 Fair CLR 84.2 68.5 59% 88 29.99 0.0
28 17:35 S 17 G 24 10.00 Fair CLR 84.4 68.7 59% 88 29.99 0.0
28 17:15 S 15 10.00 Fair CLR 84.7 68.9 59% 89 29.99 0.0
28 16:55 S 14 G 21 10.00 Fair CLR 84.7 68.4 58% 88 29.99 0.0
28 16:35 S 14 G 18 10.00 Fair CLR 84.6 68.9 59% 88 30 0.0
28 16:15 SE 15 10.00 Fair CLR 84.4 68.5 59% 88 30.01 0.0
28 15:55 S 15 G 20 10.00 Fair CLR 84.4 67.8 58% 88 30.02 0.0
28 15:35 S 13 10.00 Fair CLR 84.4 67.8 58% 88 30.02 0.0
28 15:15 S 14 G 18 10.00 Fair CLR 84.2 67.8 58% 87 30.03 0.0
28 14:55 S 13 G 18 10.00 Fair CLR 83.8 67.6 58% 87 30.04 0.0
28 14:35 S 14 G 18 10.00 Fair CLR 83.5 67.1 58% 86 30.05 0.0
28 14:15 S 13 10.00 Fair CLR 83.3 66.9 58% 86 30.05 0.0
28 13:55 SE 13 G 18 10.00 Fair CLR 82.4 66.4 58% 85 30.05 0.0
28 13:35 S 10 G 17 10.00 Fair CLR 81.9 66.7 60% 84 30.06 0.0
28 13:15 S 12 10.00 Fair CLR 81.1 66.7 62% 84 30.08 0.0
28 12:55 S 9 10.00 Fair CLR 80.6 65.7 80.6 60.1 60% 83 30.09 0.0
Date Time (cdt) Wind (mph) Vis. (mi.) Weather Sky Cond. Air Dwpt Max. Min. Relative Humidity Wind Chill (°F) Heat Index (°F) altimeter (in) sea level (mb) 1 hr 3 hr 6 hr
6 hour
Temperature (ºF) Pressure Precipitation (in)